createdAt,value
2023-02-04T00:00:15.809Z,8.13
2023-02-04T00:03:02.989Z,8.52
2023-02-04T00:05:30.683Z,8.00
2023-02-04T00:07:57.921Z,7.60
2023-02-04T00:10:25.071Z,7.88
2023-02-04T00:12:51.989Z,7.90
2023-02-04T00:15:19.148Z,8.18
2023-02-04T00:17:46.018Z,9.43
2023-02-04T00:20:13.528Z,7.68
2023-02-04T00:22:40.518Z,8.90
2023-02-04T00:25:08.207Z,7.38
2023-02-04T00:27:35.108Z,6.85
2023-02-04T00:30:03.040Z,7.45
2023-02-04T00:32:30.100Z,7.00
2023-02-04T00:34:57.410Z,8.07
2023-02-04T00:37:24.364Z,8.32
2023-02-04T00:39:51.626Z,8.10
2023-02-04T00:42:18.838Z,8.25
2023-02-04T00:44:46.100Z,8.15
2023-02-04T00:47:13.053Z,8.70
2023-02-04T00:49:41.325Z,7.45
2023-02-04T00:52:08.200Z,7.85
2023-02-04T00:54:35.431Z,8.20
2023-02-04T00:57:02.456Z,8.82
2023-02-04T00:59:29.901Z,8.35
2023-02-04T01:01:57.198Z,9.45
2023-02-04T01:04:24.515Z,7.63
2023-02-04T01:06:51.797Z,8.98
2023-02-04T01:09:18.980Z,9.00
2023-02-04T01:11:46.127Z,9.05
2023-02-04T01:14:13.421Z,8.95
2023-02-04T01:16:40.389Z,9.30
2023-02-04T01:19:07.708Z,9.13
2023-02-04T01:21:34.713Z,8.50
2023-02-04T01:24:02.033Z,8.38
2023-02-04T01:26:28.996Z,8.65
2023-02-04T01:28:56.292Z,7.75
2023-02-04T01:31:25.374Z,7.68
2023-02-04T01:33:52.807Z,8.07
2023-02-04T01:36:21.858Z,8.07
2023-02-04T01:38:49.969Z,7.93
2023-02-04T01:41:18.701Z,9.48
2023-02-04T01:43:47.840Z,9.27
2023-02-04T01:46:15.436Z,8.70
2023-02-04T01:48:43.106Z,8.10
2023-02-04T01:51:12.720Z,9.93
2023-02-04T01:53:41.427Z,9.50
2023-02-04T01:56:20.151Z,10.57
2023-02-04T01:58:48.465Z,9.95
2023-02-04T02:01:34.820Z,10.63
2023-02-04T02:04:02.506Z,11.27
2023-02-04T02:06:30.030Z,9.88
2023-02-04T02:08:58.418Z,8.95
2023-02-04T02:11:26.917Z,9.93
2023-02-04T02:13:54.468Z,9.55
2023-02-04T02:16:22.031Z,9.15
2023-02-04T02:18:49.626Z,10.48
2023-02-04T02:21:21.830Z,9.38
2023-02-04T02:23:55.520Z,9.63
2023-02-04T02:26:23.750Z,10.43
2023-02-04T02:28:51.698Z,9.93
2023-02-04T02:31:21.629Z,10.45
2023-02-04T02:33:49.460Z,10.02
2023-02-04T02:36:16.704Z,8.32
2023-02-04T02:38:44.452Z,9.18
2023-02-04T02:41:11.696Z,9.00
2023-02-04T02:43:39.842Z,10.32
2023-02-04T02:46:07.196Z,8.68
2023-02-04T02:48:34.775Z,8.20
2023-02-04T02:51:01.900Z,8.50
2023-02-04T02:53:29.229Z,8.85
2023-02-04T02:55:56.668Z,9.63
2023-02-04T02:58:32.643Z,8.35
2023-02-04T03:01:02.976Z,8.63
2023-02-04T03:03:34.221Z,8.52
2023-02-04T03:06:09.775Z,7.93
2023-02-04T03:08:37.741Z,6.80
2023-02-04T03:11:05.262Z,6.60
2023-02-04T03:13:34.151Z,6.35
2023-02-04T03:16:01.169Z,6.50
2023-02-04T03:18:29.521Z,6.35
2023-02-04T03:20:57.024Z,6.22
2023-02-04T03:23:24.355Z,6.40
2023-02-04T03:25:52.064Z,6.65
2023-02-04T03:28:19.353Z,6.20
2023-02-04T03:30:53.776Z,6.90
2023-02-04T03:33:21.041Z,6.35
2023-02-04T03:35:47.928Z,6.53
2023-02-04T03:38:15.232Z,7.40
2023-02-04T03:40:42.182Z,6.70
2023-02-04T03:43:09.343Z,6.25
2023-02-04T03:45:44.954Z,5.78
2023-02-04T03:48:13.656Z,6.45
2023-02-04T03:50:40.581Z,6.63
2023-02-04T03:53:08.286Z,5.80
2023-02-04T03:55:53.404Z,6.07
2023-02-04T03:58:20.971Z,6.35
2023-02-04T04:00:48.144Z,5.90
2023-02-04T04:03:15.888Z,6.10
2023-02-04T04:05:42.862Z,6.35
2023-02-04T04:08:10.063Z,5.63
2023-02-04T04:10:37.190Z,5.50
2023-02-04T04:13:04.699Z,5.68
2023-02-04T04:15:32.036Z,5.53
2023-02-04T04:17:59.361Z,5.47
2023-02-04T04:20:28.164Z,5.47
2023-02-04T04:22:55.327Z,5.47
2023-02-04T04:25:22.210Z,5.53
2023-02-04T04:27:49.450Z,5.22
2023-02-04T04:30:16.623Z,5.63
2023-02-04T04:32:43.793Z,5.32
2023-02-04T04:35:10.725Z,4.95
2023-02-04T04:37:38.033Z,5.63
2023-02-04T04:40:05.264Z,5.32
2023-02-04T04:42:32.615Z,5.50
2023-02-04T04:44:59.696Z,5.38
2023-02-04T04:47:26.993Z,5.57
2023-02-04T04:49:53.876Z,4.88
2023-02-04T04:52:21.066Z,6.18
2023-02-04T04:54:48.186Z,5.82
2023-02-04T04:57:15.352Z,6.57
2023-02-04T04:59:42.252Z,6.18
2023-02-04T05:02:09.488Z,6.38
2023-02-04T05:04:36.343Z,6.47
2023-02-04T05:07:03.787Z,6.47
2023-02-04T05:09:31.035Z,6.45
2023-02-04T05:11:58.251Z,6.32
2023-02-04T05:14:25.100Z,6.05
2023-02-04T05:16:52.289Z,6.03
2023-02-04T05:19:19.218Z,6.65
2023-02-04T05:21:46.407Z,6.38
2023-02-04T05:24:13.360Z,6.47
2023-02-04T05:26:40.644Z,5.55
2023-02-04T05:29:08.943Z,6.40
2023-02-04T05:31:37.260Z,6.43
2023-02-04T05:34:04.274Z,6.50
2023-02-04T05:36:31.408Z,6.55
2023-02-04T05:38:59.306Z,5.57
2023-02-04T05:41:26.710Z,5.07
2023-02-04T05:43:53.653Z,6.10
2023-02-04T05:46:20.914Z,5.53
2023-02-04T05:48:47.976Z,6.38
2023-02-04T05:51:15.150Z,6.07
2023-02-04T05:53:42.082Z,6.07
2023-02-04T05:56:09.292Z,5.72
2023-02-04T05:58:36.140Z,6.07
2023-02-04T06:01:04.246Z,5.55
2023-02-04T06:03:32.753Z,4.68
2023-02-04T06:06:00.180Z,5.18
2023-02-04T06:08:27.093Z,5.47
2023-02-04T06:10:54.289Z,5.47
2023-02-04T06:13:21.176Z,5.28
2023-02-04T06:15:48.389Z,5.10
2023-02-04T06:18:15.392Z,4.75
2023-02-04T06:20:42.588Z,4.82
2023-02-04T06:23:09.542Z,4.70
2023-02-04T06:25:37.832Z,5.28
2023-02-04T06:28:05.179Z,4.75
2023-02-04T06:30:32.699Z,5.20
2023-02-04T06:33:00.071Z,5.45
2023-02-04T06:35:27.270Z,5.30
2023-02-04T06:37:54.160Z,4.85
2023-02-04T06:40:21.400Z,5.50
2023-02-04T06:42:48.334Z,3.55
2023-02-04T06:45:15.606Z,4.43
2023-02-04T06:47:42.566Z,4.63
2023-02-04T06:50:10.514Z,4.35
2023-02-04T06:52:37.607Z,4.82
2023-02-04T06:55:05.133Z,5.20
2023-02-04T06:57:31.995Z,4.47
2023-02-04T06:59:59.223Z,3.65
2023-02-04T07:02:26.226Z,4.70
2023-02-04T07:04:53.732Z,4.63
2023-02-04T07:07:20.616Z,4.32
2023-02-04T07:09:47.892Z,4.07
2023-02-04T07:12:16.344Z,4.22
2023-02-04T07:14:43.744Z,4.95
2023-02-04T07:17:10.759Z,5.70
2023-02-04T07:19:38.187Z,6.50
2023-02-04T07:22:05.502Z,5.72
2023-02-04T07:24:32.680Z,6.68
2023-02-04T07:27:18.370Z,6.57
2023-02-04T07:29:45.531Z,4.38
2023-02-04T07:32:12.500Z,5.65
2023-02-04T07:34:39.770Z,4.20
2023-02-04T07:37:06.680Z,4.63
2023-02-04T07:39:34.204Z,3.80
2023-02-04T07:42:01.390Z,4.07
2023-02-04T07:44:35.095Z,3.80
2023-02-04T07:47:02.075Z,3.58
2023-02-04T07:49:29.324Z,3.13
2023-02-04T07:51:57.908Z,3.45
2023-02-04T07:54:25.065Z,2.50
2023-02-04T07:56:51.942Z,2.80
2023-02-04T07:59:19.128Z,3.75
2023-02-04T08:01:47.917Z,2.80
2023-02-04T08:04:15.265Z,3.08
2023-02-04T08:06:42.179Z,3.22
2023-02-04T08:09:09.329Z,2.78
2023-02-04T08:11:36.287Z,3.13
2023-02-04T08:14:03.480Z,2.53
2023-02-04T08:16:30.612Z,2.10
2023-02-04T08:18:57.978Z,2.40
2023-02-04T08:21:24.867Z,2.33
2023-02-04T08:23:52.055Z,2.80
2023-02-04T08:26:19.058Z,2.60
2023-02-04T08:28:46.320Z,2.20
2023-02-04T08:31:13.717Z,2.70
2023-02-04T08:33:41.190Z,1.98
2023-02-04T08:36:08.903Z,2.45
2023-02-04T08:38:36.273Z,3.13
2023-02-04T08:41:03.395Z,2.35
2023-02-04T08:43:30.544Z,2.60
2023-02-04T08:45:57.504Z,2.08
2023-02-04T08:48:24.680Z,2.38
2023-02-04T08:50:51.529Z,2.72
2023-02-04T08:53:18.907Z,2.53
2023-02-04T08:55:45.862Z,2.33
2023-02-04T08:58:13.072Z,1.92
2023-02-04T09:00:40.092Z,2.58
2023-02-04T09:03:07.832Z,1.75
2023-02-04T09:05:34.676Z,1.98
2023-02-04T09:08:01.971Z,1.90
2023-02-04T09:10:28.834Z,2.03
2023-02-04T09:12:56.254Z,1.60
2023-02-04T09:15:26.954Z,2.10
2023-02-04T09:18:01.253Z,2.20
2023-02-04T09:20:29.549Z,1.50
2023-02-04T09:22:57.323Z,2.25
2023-02-04T09:25:24.450Z,2.75
2023-02-04T09:27:51.807Z,2.20
2023-02-04T09:30:18.917Z,1.67
2023-02-04T09:32:46.076Z,2.05
2023-02-04T09:35:12.940Z,1.48
2023-02-04T09:37:40.191Z,2.33
2023-02-04T09:40:07.421Z,1.65
2023-02-04T09:42:34.609Z,1.70
2023-02-04T09:45:03.329Z,1.70
2023-02-04T09:47:31.406Z,1.70
2023-02-04T09:49:58.496Z,1.80
2023-02-04T09:52:27.989Z,1.75
2023-02-04T09:54:54.919Z,1.50
2023-02-04T09:57:22.477Z,2.25
2023-02-04T09:59:50.313Z,1.75
2023-02-04T10:02:27.170Z,2.05
2023-02-04T10:04:57.854Z,2.00
2023-02-04T10:07:27.408Z,1.75
2023-02-04T10:09:54.981Z,2.30
2023-02-04T10:12:22.939Z,1.70
2023-02-04T10:14:50.053Z,1.98
2023-02-04T10:17:22.433Z,1.80
2023-02-04T10:19:50.391Z,2.08
2023-02-04T10:22:20.814Z,2.17
2023-02-04T10:24:48.020Z,2.05
2023-02-04T10:27:18.019Z,2.00
2023-02-04T10:29:58.818Z,2.00
2023-02-04T10:37:30.805Z,2.33
2023-02-04T10:39:57.971Z,1.88
2023-02-04T10:42:27.730Z,2.13
2023-02-04T10:44:55.367Z,2.70
2023-02-04T10:47:29.014Z,2.55
2023-02-04T10:50:03.176Z,2.47
2023-02-04T10:52:39.887Z,2.20
2023-02-04T10:55:14.251Z,2.00
2023-02-04T10:57:43.172Z,2.47
2023-02-04T11:00:21.800Z,2.05
2023-02-04T11:03:11.018Z,2.20
2023-02-04T11:05:38.522Z,1.92
2023-02-04T11:08:27.729Z,1.90
2023-02-04T11:11:28.530Z,2.25
2023-02-04T11:13:55.839Z,2.90
2023-02-04T11:16:28.015Z,2.08
2023-02-04T11:19:05.047Z,2.03
2023-02-04T11:21:34.955Z,2.10
2023-02-04T11:24:06.775Z,2.22
2023-02-04T11:29:04.695Z,2.45
2023-02-04T11:31:35.153Z,2.60
2023-02-04T11:34:15.302Z,2.08
2023-02-04T11:37:13.996Z,2.03
2023-02-04T11:39:43.438Z,2.00
2023-02-04T11:42:30.410Z,2.03
2023-02-04T11:45:15.153Z,1.55
2023-02-04T11:47:43.267Z,2.20
2023-02-04T11:50:34.488Z,2.80
2023-02-04T11:53:03.050Z,3.67
2023-02-04T11:55:35.763Z,3.33
2023-02-04T11:58:03.418Z,3.20
2023-02-04T12:00:33.033Z,2.70
2023-02-04T12:03:11.987Z,3.60
2023-02-04T12:05:41.077Z,3.40
2023-02-04T12:08:26.399Z,3.90
2023-02-04T12:11:12.701Z,3.38
2023-02-04T12:13:52.932Z,3.78
2023-02-04T12:16:20.912Z,3.53
2023-02-04T12:18:48.414Z,3.35
2023-02-04T12:21:16.427Z,3.60
2023-02-04T12:23:43.562Z,3.15
2023-02-04T12:26:11.794Z,2.95
2023-02-04T12:28:38.827Z,2.78
2023-02-04T12:31:06.145Z,3.08
2023-02-04T12:33:33.322Z,2.90
2023-02-04T12:36:00.569Z,3.03
2023-02-04T12:38:28.304Z,3.60
2023-02-04T12:40:55.541Z,3.53
2023-02-04T12:43:22.436Z,3.22
2023-02-04T12:45:50.021Z,3.38
2023-02-04T12:48:17.339Z,2.90
2023-02-04T12:50:45.485Z,2.78
2023-02-04T12:53:12.601Z,2.42
2023-02-04T12:55:39.973Z,3.25
2023-02-04T12:58:06.829Z,3.00
2023-02-04T13:00:34.058Z,2.85
2023-02-04T13:03:01.036Z,2.58
2023-02-04T13:05:29.297Z,2.65
2023-02-04T13:07:56.537Z,2.70
2023-02-04T13:10:24.134Z,2.22
2023-02-04T13:12:51.656Z,2.47
2023-02-04T13:15:19.157Z,2.60
2023-02-04T13:17:46.135Z,2.83
2023-02-04T13:20:13.791Z,2.80
2023-02-04T13:22:40.675Z,2.38
2023-02-04T13:25:08.014Z,2.50
2023-02-04T13:27:34.970Z,2.67
2023-02-04T13:30:03.153Z,2.00
2023-02-04T13:32:30.097Z,2.70
2023-02-04T13:34:57.298Z,2.30
2023-02-04T13:37:24.495Z,2.15
2023-02-04T13:39:51.717Z,2.10
2023-02-04T13:42:18.610Z,2.42
2023-02-04T13:44:45.749Z,2.17
2023-02-04T13:47:12.693Z,2.15
2023-02-04T13:49:39.872Z,2.22
2023-02-04T13:52:06.801Z,2.38
2023-02-04T13:54:35.876Z,1.88
2023-02-04T13:57:03.841Z,2.33
2023-02-04T13:59:31.319Z,2.10
2023-02-04T14:01:58.341Z,2.30
2023-02-04T14:04:27.171Z,2.42
2023-02-04T14:06:55.432Z,2.08
2023-02-04T14:09:23.299Z,2.08
2023-02-04T14:11:50.203Z,2.20
2023-02-04T14:14:17.499Z,1.95
2023-02-04T14:16:44.603Z,1.90
2023-02-04T14:19:11.805Z,2.20
2023-02-04T14:21:38.827Z,1.63
2023-02-04T14:24:06.436Z,2.00
2023-02-04T14:26:33.538Z,2.00
2023-02-04T14:29:01.431Z,1.75
2023-02-04T14:31:28.504Z,1.70
2023-02-04T14:33:56.322Z,1.80
2023-02-04T14:36:23.291Z,2.33
2023-02-04T14:38:50.589Z,2.00
2023-02-04T14:41:20.067Z,2.05
2023-02-04T14:43:47.719Z,2.17
2023-02-04T14:46:14.916Z,2.42
2023-02-04T14:48:42.188Z,2.00
2023-02-04T14:51:09.138Z,2.15
2023-02-04T14:53:36.349Z,1.83
2023-02-04T14:56:03.302Z,1.75
2023-02-04T14:58:30.633Z,2.30
2023-02-04T15:00:57.599Z,2.00
2023-02-04T15:03:24.817Z,2.15
2023-02-04T15:05:51.824Z,2.40
2023-02-04T15:08:19.183Z,2.05
2023-02-04T15:10:46.226Z,2.17
2023-02-04T15:13:13.686Z,2.25
2023-02-04T15:15:40.643Z,1.95
2023-02-04T15:18:07.935Z,2.30
2023-02-04T15:20:35.188Z,2.33
2023-02-04T15:23:02.632Z,2.42
2023-02-04T15:25:29.668Z,1.92
2023-02-04T15:27:56.943Z,1.90
2023-02-04T15:30:23.958Z,2.45
2023-02-04T15:32:51.207Z,2.70
2023-02-04T15:35:18.859Z,2.58
2023-02-04T15:37:46.457Z,2.65
2023-02-04T15:40:13.425Z,2.40
2023-02-04T15:42:40.953Z,2.83
2023-02-04T15:45:08.367Z,2.40
2023-02-04T15:47:35.597Z,3.13
2023-02-04T15:50:04.031Z,2.20
2023-02-04T15:52:31.485Z,2.70
2023-02-04T15:54:58.384Z,2.60
2023-02-04T15:57:25.582Z,2.80
2023-02-04T15:59:52.500Z,2.58
2023-02-04T16:02:19.715Z,2.35
2023-02-04T16:04:47.982Z,2.47
2023-02-04T16:07:15.277Z,2.63
2023-02-04T16:09:43.852Z,2.25
2023-02-04T16:12:11.085Z,2.50
2023-02-04T16:14:37.969Z,2.88
2023-02-04T16:17:07.012Z,2.85
2023-02-04T16:19:34.424Z,2.38
2023-02-04T16:22:01.713Z,2.25
2023-02-04T16:24:28.795Z,2.20
2023-02-04T16:26:55.960Z,2.75
2023-02-04T16:29:22.914Z,2.85
2023-02-04T16:31:50.334Z,3.47
2023-02-04T16:34:17.254Z,3.00
2023-02-04T16:36:44.412Z,2.80
2023-02-04T16:39:11.459Z,2.97
2023-02-04T16:41:39.077Z,2.63
2023-02-04T16:44:06.093Z,2.97
2023-02-04T16:46:33.956Z,3.40
2023-02-04T16:49:01.397Z,3.60
2023-02-04T16:51:29.224Z,3.55
2023-02-04T16:54:14.918Z,3.00
2023-02-04T16:56:42.571Z,3.15
2023-02-04T16:59:09.524Z,4.25
2023-02-04T17:01:36.753Z,3.33
2023-02-04T17:04:03.755Z,3.33
2023-02-04T17:06:32.622Z,3.30
2023-02-04T17:08:59.641Z,3.85
2023-02-04T17:11:29.644Z,3.63
2023-02-04T17:14:00.667Z,3.58
2023-02-04T17:16:29.344Z,4.55
2023-02-04T17:18:56.613Z,4.50
2023-02-04T17:21:26.303Z,3.92
2023-02-04T17:23:53.790Z,4.55
2023-02-04T17:26:23.385Z,4.47
2023-02-04T17:28:51.225Z,5.18
2023-02-04T17:31:18.443Z,4.43
2023-02-04T17:33:46.017Z,5.40
2023-02-04T17:36:15.269Z,4.72
2023-02-04T17:38:42.207Z,4.57
2023-02-04T17:41:09.527Z,4.25
2023-02-04T17:43:37.270Z,4.28
2023-02-04T17:46:04.821Z,4.55
2023-02-04T17:48:32.089Z,4.03
2023-02-04T17:50:59.376Z,4.25
2023-02-04T17:53:26.478Z,3.53
2023-02-04T17:55:53.620Z,4.20
2023-02-04T17:58:25.601Z,4.03
2023-02-04T18:00:55.466Z,4.63
2023-02-04T18:03:24.691Z,4.30
2023-02-04T18:05:54.323Z,3.80
2023-02-04T18:08:27.312Z,3.97
2023-02-04T18:10:55.966Z,3.63
2023-02-04T18:13:23.869Z,4.00
2023-02-04T18:16:03.043Z,4.00
2023-02-04T18:18:37.216Z,4.18
2023-02-04T18:21:19.275Z,4.32
2023-02-04T18:23:46.441Z,4.70
2023-02-04T18:26:17.918Z,4.35
2023-02-04T18:28:48.901Z,4.40
2023-02-04T18:31:36.629Z,4.82
2023-02-04T18:34:16.934Z,4.80
2023-02-04T18:36:44.216Z,5.63
2023-02-04T18:39:17.808Z,5.32
2023-02-04T18:41:49.156Z,5.43
2023-02-04T18:44:22.363Z,5.63
2023-02-04T18:46:49.607Z,6.03
2023-02-04T18:49:22.685Z,6.50
2023-02-04T18:51:51.270Z,6.20
2023-02-04T18:54:29.230Z,7.22
2023-02-04T18:57:28.795Z,6.43
2023-02-04T19:00:27.620Z,7.00
2023-02-04T19:03:00.690Z,6.53
2023-02-04T19:05:36.881Z,6.65
2023-02-04T19:08:04.044Z,6.70
2023-02-04T19:10:38.165Z,7.45
2023-02-04T19:13:19.524Z,7.07
2023-02-04T19:15:52.541Z,6.47
2023-02-04T19:18:27.688Z,7.28
2023-02-04T19:20:54.749Z,5.65
2023-02-04T19:23:23.965Z,7.55
2023-02-04T19:25:52.398Z,6.57
2023-02-04T19:28:29.497Z,7.13
2023-02-04T19:31:01.964Z,6.30
2023-02-04T19:33:40.081Z,6.88
2023-02-04T19:36:39.895Z,6.07
2023-02-04T19:39:29.656Z,6.85
2023-02-04T19:41:57.625Z,6.47
2023-02-04T19:44:42.513Z,6.20
2023-02-04T19:47:28.400Z,5.88
2023-02-04T19:50:02.857Z,5.80
2023-02-04T19:52:38.785Z,5.72
2023-02-04T19:55:18.107Z,6.32
2023-02-04T19:57:46.553Z,6.53
2023-02-04T20:00:35.521Z,5.78
2023-02-04T20:03:13.454Z,6.45
2023-02-04T20:05:41.570Z,6.43
2023-02-04T20:08:27.415Z,6.47
2023-02-04T20:10:54.767Z,6.35
2023-02-04T20:13:22.920Z,6.65
2023-02-04T20:15:55.762Z,6.75
2023-02-04T20:18:26.393Z,6.75
2023-02-04T20:20:54.893Z,6.72
2023-02-04T20:23:29.684Z,6.50
2023-02-04T20:25:57.042Z,6.22
2023-02-04T20:28:30.031Z,6.90
2023-02-04T20:31:00.346Z,7.13
2023-02-04T20:33:33.644Z,7.50
2023-02-04T20:36:25.349Z,7.85
2023-02-04T20:38:58.837Z,6.50
2023-02-04T20:41:26.243Z,7.03
2023-02-04T20:43:53.233Z,7.28
2023-02-04T20:46:24.438Z,7.43
2023-02-04T20:48:51.724Z,7.78
2023-02-04T20:51:25.108Z,8.25
2023-02-04T20:54:01.118Z,7.40
2023-02-04T20:56:31.743Z,7.25
2023-02-04T20:59:17.255Z,8.25
2023-02-04T21:01:50.261Z,6.70
2023-02-04T21:04:30.258Z,7.47
2023-02-04T21:07:06.643Z,6.80
2023-02-04T21:09:34.672Z,6.72
2023-02-04T21:12:02.620Z,7.20
2023-02-04T21:14:30.244Z,5.80
2023-02-04T21:16:57.575Z,6.75
2023-02-04T21:19:25.871Z,6.05
2023-02-04T21:21:53.249Z,7.57
2023-02-04T21:24:20.157Z,7.28
2023-02-04T21:26:47.500Z,7.60
2023-02-04T21:29:14.949Z,6.90
2023-02-04T21:31:42.173Z,6.10
2023-02-04T21:34:09.194Z,6.22
2023-02-04T21:36:36.632Z,6.82
2023-02-04T21:39:03.793Z,6.82
2023-02-04T21:41:31.091Z,7.50
2023-02-04T21:43:58.025Z,7.88
2023-02-04T21:46:25.417Z,7.93
2023-02-04T21:48:52.550Z,7.40
2023-02-04T21:51:19.772Z,7.90
2023-02-04T21:53:46.769Z,7.80
2023-02-04T21:56:14.572Z,8.40
2023-02-04T21:58:41.618Z,6.72
2023-02-04T22:01:10.477Z,8.07
2023-02-04T22:03:37.599Z,7.88
2023-02-04T22:06:05.199Z,7.80
2023-02-04T22:08:32.219Z,8.38
2023-02-04T22:11:00.477Z,7.03
2023-02-04T22:13:46.055Z,7.22
2023-02-04T22:16:13.370Z,8.77
2023-02-04T22:18:40.362Z,7.97
2023-02-04T22:21:07.520Z,8.55
2023-02-04T22:23:34.377Z,8.48
2023-02-04T22:26:01.741Z,7.35
2023-02-04T22:28:28.635Z,7.07
2023-02-04T22:30:55.874Z,7.40
2023-02-04T22:33:22.817Z,7.30
2023-02-04T22:35:49.990Z,8.23
2023-02-04T22:38:19.438Z,7.13
2023-02-04T22:40:48.529Z,7.53
2023-02-04T22:43:15.562Z,7.93
2023-02-04T22:45:42.787Z,7.13
2023-02-04T22:48:09.682Z,8.15
2023-02-04T22:50:36.944Z,7.60
2023-02-04T22:53:03.809Z,6.95
2023-02-04T22:55:31.264Z,6.90
2023-02-04T22:57:58.281Z,7.00
2023-02-04T23:00:25.656Z,6.50
2023-02-04T23:02:52.913Z,7.05
2023-02-04T23:05:20.494Z,6.75
2023-02-04T23:07:47.565Z,6.82
2023-02-04T23:10:15.393Z,6.15
2023-02-04T23:12:42.267Z,6.25
2023-02-04T23:15:11.989Z,5.95
2023-02-04T23:17:38.862Z,5.55
2023-02-04T23:20:06.588Z,6.15
2023-02-04T23:22:33.640Z,5.28
2023-02-04T23:25:00.903Z,6.45
2023-02-04T23:27:27.909Z,6.22
2023-02-04T23:29:55.056Z,6.25
2023-02-04T23:32:23.533Z,5.30
2023-02-04T23:34:50.727Z,6.50
2023-02-04T23:37:17.650Z,5.93
2023-02-04T23:39:44.893Z,6.18
2023-02-04T23:42:16.929Z,6.78
2023-02-04T23:44:44.069Z,5.43
2023-02-04T23:47:10.978Z,6.75
2023-02-04T23:49:38.238Z,6.63
2023-02-04T23:52:07.189Z,4.40
2023-02-04T23:54:35.271Z,4.70
2023-02-04T23:57:02.203Z,4.80
2023-02-04T23:59:29.920Z,4.80
